Time;durP1;ratioP1;P1;durP2;ratioP2;P2;SDS_P1;SDS_P2;PMS_P1;PMS_P2;Temp;Humidity;BMP_temperature;BMP_pressure;BME280_temperature;BME280_humidity;BME280_pressure;Samples;Min_cycle;Max_cycle;Signal;HPM_P1;HPM_P2
2023/10/19 00:02:19;;;;;;;15.60;12.05;;;8.80;99.90;;;;;;5019966;28;20125;-65
2023/10/19 00:04:51;;;;;;;16.98;13.50;;;8.80;99.90;;;;;;5013303;28;20033;-64
2023/10/19 00:07:23;;;;;;;14.75;12.07;;;8.80;99.90;;;;;;5015022;28;20034;-64
2023/10/19 00:09:55;;;;;;;17.20;11.75;;;8.80;99.90;;;;;;5018514;28;20480;-64
2023/10/19 00:12:27;;;;;;;15.90;12.15;;;8.80;99.90;;;;;;5000969;28;20132;-65
2023/10/19 00:14:59;;;;;;;16.75;12.85;;;8.80;99.90;;;;;;5015035;28;20049;-64
2023/10/19 00:17:32;;;;;;;16.58;11.77;;;8.80;99.90;;;;;;5011891;28;20041;-64
2023/10/19 00:20:29;;;;;;;15.02;12.50;;;8.80;99.90;;;;;;5014020;28;20089;-64
2023/10/19 00:22:58;;;;;;;16.35;13.02;;;8.80;99.90;;;;;;5013002;28;20040;-65
2023/10/19 00:25:31;;;;;;;15.90;12.70;;;8.80;99.90;;;;;;5016271;28;20041;-65
2023/10/19 00:28:04;;;;;;;16.02;12.27;;;8.70;99.90;;;;;;5013790;28;20041;-64
2023/10/19 00:30:36;;;;;;;14.67;12.87;;;8.70;99.90;;;;;;5015684;28;20069;-64
2023/10/19 00:33:28;;;;;;;18.13;13.75;;;8.70;99.90;;;;;;5020515;28;20293;-65
2023/10/19 00:36:07;;;;;;;18.42;13.40;;;8.70;99.90;;;;;;5018629;28;20045;-64
2023/10/19 00:38:47;;;;;;;18.00;13.45;;;8.60;99.90;;;;;;5021616;28;20046;-64
2023/10/19 00:41:31;;;;;;;17.02;13.13;;;8.70;99.90;;;;;;5003163;28;20506;-65
2023/10/19 00:44:10;;;;;;;15.35;12.18;;;8.70;99.90;;;;;;4990671;28;20038;-64
2023/10/19 00:49:14;;;;;;;17.90;13.02;;;8.70;99.90;;;;;;5023877;28;20042;-64
2023/10/19 00:51:55;;;;;;;17.13;12.90;;;8.70;99.90;;;;;;5012755;28;20046;-64
2023/10/19 00:54:33;;;;;;;16.58;12.88;;;8.70;99.90;;;;;;5017283;28;20045;-65
2023/10/19 00:57:10;;;;;;;18.70;13.65;;;8.60;99.90;;;;;;5015080;28;20041;-64
2023/10/19 00:59:49;;;;;;;18.92;15.23;;;8.60;99.90;;;;;;5018249;28;20056;-65
2023/10/19 01:02:18;;;;;;;18.85;14.40;;;8.50;99.90;;;;;;5011772;28;20030;-64
2023/10/19 01:05:00;;;;;;;20.80;15.00;;;8.40;99.90;;;;;;5017255;28;20140;-65
2023/10/19 01:07:37;;;;;;;21.60;15.38;;;8.30;99.90;;;;;;5019854;28;20109;-65
2023/10/19 01:10:13;;;;;;;22.35;15.52;;;8.30;99.90;;;;;;5022946;28;20038;-64
2023/10/19 01:12:45;;;;;;;20.58;15.40;;;8.30;99.90;;;;;;5026294;28;20045;-65
2023/10/19 01:18:01;;;;;;;21.90;15.75;;;8.40;99.90;;;;;;5026091;28;20042;-64
2023/10/19 01:28:52;;;;;;;19.50;14.32;;;8.50;99.90;;;;;;5015893;28;20038;-64
2023/10/19 01:34:04;;;;;;;17.75;13.45;;;8.60;99.90;;;;;;5020002;28;20528;-65
2023/10/19 01:36:37;;;;;;;19.65;15.25;;;8.60;99.90;;;;;;5019718;28;20482;-64
2023/10/19 01:39:10;;;;;;;19.23;14.90;;;8.60;99.90;;;;;;5005739;28;20051;-65
2023/10/19 01:41:42;;;;;;;16.38;13.60;;;8.70;99.90;;;;;;5016578;28;20483;-66
2023/10/19 01:44:15;;;;;;;18.50;13.25;;;8.60;99.90;;;;;;5016412;28;20104;-65
2023/10/19 01:46:48;;;;;;;15.52;12.73;;;8.60;99.90;;;;;;5022569;28;20137;-65
2023/10/19 01:49:28;;;;;;;;;;;8.60;99.90;;;;;;5020850;28;20050;-65
2023/10/19 01:52:00;;;;;;;17.58;13.10;;;8.60;99.90;;;;;;5011555;28;19921;-65
2023/10/19 01:54:34;;;;;;;17.05;13.00;;;8.70;99.90;;;;;;5016069;28;20034;-66
2023/10/19 01:57:08;;;;;;;16.77;13.43;;;8.70;99.90;;;;;;5012172;28;20048;-65
2023/10/19 01:59:35;;;;;;;17.50;12.68;;;8.70;99.90;;;;;;5016303;28;20053;-66
2023/10/19 02:02:09;;;;;;;16.75;13.07;;;8.70;99.90;;;;;;5017329;28;20642;-66
2023/10/19 02:04:36;;;;;;;17.98;13.10;;;8.70;99.90;;;;;;5020270;28;20065;-65
2023/10/19 02:07:13;;;;;;;16.08;11.90;;;8.70;99.90;;;;;;5020004;28;20041;-65
2023/10/19 02:09:41;;;;;;;16.48;11.90;;;8.80;99.90;;;;;;5022745;28;20039;-66
2023/10/19 02:12:17;;;;;;;15.70;12.55;;;8.80;99.90;;;;;;5024087;28;20065;-66
2023/10/19 02:14:49;;;;;;;15.68;12.63;;;8.90;99.90;;;;;;5017800;28;20060;-65
2023/10/19 02:17:20;;;;;;;16.15;13.43;;;8.80;99.90;;;;;;4993873;28;20048;-65
2023/10/19 02:19:53;;;;;;;17.65;15.07;;;8.80;99.90;;;;;;4999284;28;20151;-65
2023/10/19 02:22:25;;;;;;;15.73;13.00;;;8.80;99.90;;;;;;5020284;28;20072;-65
2023/10/19 02:24:57;;;;;;;15.38;12.88;;;8.90;99.90;;;;;;4995548;28;20053;-65
2023/10/19 02:27:28;;;;;;;14.52;12.35;;;8.90;99.90;;;;;;5016736;28;20119;-64
2023/10/19 02:30:01;;;;;;;18.95;13.95;;;9.00;99.90;;;;;;5022630;28;20382;-65
2023/10/19 02:32:33;;;;;;;15.70;12.32;;;8.90;99.90;;;;;;5020993;28;20034;-65
2023/10/19 02:35:05;;;;;;;15.80;12.73;;;8.90;99.90;;;;;;5002854;28;20053;-65
2023/10/19 02:37:38;;;;;;;16.52;13.25;;;8.90;99.90;;;;;;5019518;28;20050;-65
2023/10/19 02:40:15;;;;;;;19.85;14.93;;;8.90;99.90;;;;;;5022449;28;20128;-65
2023/10/19 02:42:47;;;;;;;20.00;14.48;;;8.90;99.90;;;;;;5033247;28;20058;-64
2023/10/19 02:45:15;;;;;;;17.77;13.82;;;8.80;99.90;;;;;;5023458;28;20113;-65
2023/10/19 02:47:47;;;;;;;15.65;13.32;;;8.80;99.90;;;;;;5004320;28;20129;-65
2023/10/19 02:50:23;;;;;;;18.60;14.48;;;8.80;99.90;;;;;;5021110;28;20111;-65
2023/10/19 02:52:55;;;;;;;19.63;14.85;;;8.80;99.90;;;;;;5011697;28;20069;-66
2023/10/19 02:55:27;;;;;;;15.98;13.15;;;8.80;99.90;;;;;;5010416;28;20513;-65
2023/10/19 02:57:59;;;;;;;17.88;14.95;;;8.80;99.90;;;;;;5014093;28;20413;-64
2023/10/19 03:00:33;;;;;;;18.05;14.68;;;8.80;99.90;;;;;;5014500;28;20417;-65
2023/10/19 03:03:06;;;;;;;18.17;14.07;;;8.80;99.90;;;;;;5015726;28;20108;-65
2023/10/19 03:05:39;;;;;;;17.13;14.00;;;8.80;99.90;;;;;;5022562;28;20391;-65
2023/10/19 03:08:11;;;;;;;19.70;14.20;;;8.80;99.90;;;;;;5033989;28;20477;-65
2023/10/19 03:10:43;;;;;;;20.80;14.65;;;8.70;99.90;;;;;;5020976;28;20033;-65
2023/10/19 03:13:16;;;;;;;18.77;14.18;;;8.80;99.90;;;;;;5016949;28;20052;-64
2023/10/19 03:15:48;;;;;;;20.65;14.82;;;8.80;99.90;;;;;;5017055;28;20054;-65
2023/10/19 03:18:15;;;;;;;16.05;13.02;;;8.80;99.90;;;;;;5020608;28;20122;-65
2023/10/19 03:20:50;;;;;;;17.45;13.60;;;8.90;99.90;;;;;;5024328;28;20053;-65
2023/10/19 03:23:23;;;;;;;17.23;13.82;;;8.90;99.90;;;;;;5009898;28;20038;-65
2023/10/19 03:26:22;;;;;;;17.85;14.00;;;9.00;99.90;;;;;;5011096;28;20044;-65
2023/10/19 03:28:54;;;;;;;17.48;13.68;;;9.00;99.90;;;;;;5011253;28;20516;-65
2023/10/19 03:31:27;;;;;;;18.45;14.75;;;9.00;99.90;;;;;;5015456;28;20041;-66
2023/10/19 03:33:59;;;;;;;19.13;14.50;;;8.90;99.90;;;;;;5015692;28;20049;-65
2023/10/19 03:36:32;;;;;;;19.25;15.27;;;9.00;99.90;;;;;;5017202;28;20042;-65
2023/10/19 03:39:11;;;;;;;20.55;16.15;;;8.90;99.90;;;;;;5019605;28;20040;-64
2023/10/19 03:41:45;;;;;;;18.65;14.98;;;8.90;99.90;;;;;;5018061;28;20472;-66
2023/10/19 03:44:24;;;;;;;18.67;16.27;;;8.90;99.90;;;;;;5004843;28;20052;-65
2023/10/19 03:47:04;;;;;;;18.63;15.32;;;9.00;99.90;;;;;;5019111;28;20042;-64
2023/10/19 03:49:39;;;;;;;18.60;16.02;;;8.90;99.90;;;;;;5015700;28;20120;-65
2023/10/19 03:54:43;;;;;;;19.83;15.18;;;8.90;99.90;;;;;;5012166;28;20536;-64
2023/10/19 03:57:19;;;;;;;20.05;15.70;;;8.90;99.90;;;;;;5010206;28;20038;-64
2023/10/19 03:59:57;;;;;;;17.92;14.65;;;8.90;99.90;;;;;;5012022;28;20056;-65
2023/10/19 04:02:38;;;;;;;22.58;14.98;;;8.90;99.90;;;;;;5015689;28;20413;-66
2023/10/19 04:05:14;;;;;;;20.52;16.17;;;8.90;99.90;;;;;;5014707;28;20037;-69
2023/10/19 04:07:41;;;;;;;19.42;15.15;;;9.00;99.90;;;;;;5012704;28;20048;-64
2023/10/19 04:13:00;;;;;;;18.83;15.55;;;9.00;99.90;;;;;;5013200;28;20133;-65
2023/10/19 04:15:33;;;;;;;20.83;14.98;;;9.00;99.90;;;;;;5015857;28;20121;-67
2023/10/19 04:18:08;;;;;;;19.88;14.52;;;8.90;99.90;;;;;;5017006;28;20100;-66
2023/10/19 04:23:17;;;;;;;20.15;16.10;;;8.80;99.90;;;;;;5011998;28;20132;-66
2023/10/19 04:25:49;;;;;;;18.92;15.60;;;8.80;99.90;;;;;;5012971;28;20049;-66
2023/10/19 04:28:25;;;;;;;20.60;16.70;;;8.80;99.90;;;;;;5012858;28;20049;-65
2023/10/19 04:31:02;;;;;;;20.55;15.70;;;8.70;99.90;;;;;;5011319;28;20045;-66
2023/10/19 04:33:34;;;;;;;18.40;14.88;;;8.70;99.90;;;;;;5015229;28;20041;-65
2023/10/19 04:36:09;;;;;;;20.25;16.15;;;8.60;99.90;;;;;;5020737;28;20061;-65
2023/10/19 04:38:36;;;;;;;20.70;16.45;;;8.60;99.90;;;;;;5021075;28;20136;-67
2023/10/19 04:41:10;;;;;;;21.92;16.95;;;8.60;99.90;;;;;;5016667;28;20068;-67
2023/10/19 04:43:49;;;;;;;19.75;16.25;;;8.50;99.90;;;;;;5015956;28;20398;-65
2023/10/19 04:46:18;;;;;;;19.52;15.68;;;8.50;99.90;;;;;;5015257;28;20101;-65
2023/10/19 04:48:50;;;;;;;;;;;8.40;99.90;;;;;;5021926;28;20441;-65
2023/10/19 04:51:21;;;;;;;17.33;14.57;;;8.40;99.90;;;;;;5005862;28;20024;-65
2023/10/19 04:53:55;;;;;;;20.05;15.55;;;8.50;99.90;;;;;;5009795;28;20052;-65
2023/10/19 04:56:22;;;;;;;22.98;15.63;;;8.50;99.90;;;;;;5003494;28;20042;-64
2023/10/19 04:58:54;;;;;;;21.58;16.35;;;8.50;99.90;;;;;;5007809;28;20038;-64
2023/10/19 05:01:26;;;;;;;19.50;15.60;;;8.50;99.90;;;;;;4998945;28;20038;-65
2023/10/19 05:04:00;;;;;;;22.50;16.88;;;8.60;99.90;;;;;;5010568;28;20064;-65
2023/10/19 05:06:32;;;;;;;24.30;18.63;;;8.60;99.90;;;;;;5007713;28;20620;-65
2023/10/19 05:09:04;;;;;;;22.33;16.58;;;8.70;99.90;;;;;;5013651;28;20413;-65
2023/10/19 05:11:35;;;;;;;22.52;17.25;;;8.70;99.90;;;;;;5013570;28;20040;-65
2023/10/19 05:14:07;;;;;;;19.17;15.57;;;8.80;99.90;;;;;;5016464;28;20051;-65
2023/10/19 05:16:40;;;;;;;20.77;16.33;;;8.80;99.90;;;;;;5012924;28;20057;-65
2023/10/19 05:19:12;;;;;;;19.60;15.65;;;8.90;99.90;;;;;;5011202;28;20045;-65
2023/10/19 05:21:44;;;;;;;21.63;16.23;;;8.90;99.90;;;;;;5015026;28;20052;-64
2023/10/19 05:24:11;;;;;;;19.58;15.48;;;8.90;99.90;;;;;;5007633;28;20043;-65
2023/10/19 05:26:38;;;;;;;19.48;15.35;;;8.80;99.90;;;;;;5003151;28;20099;-64
2023/10/19 05:29:05;;;;;;;17.25;14.95;;;8.70;99.90;;;;;;5005679;28;20133;-65
2023/10/19 05:31:37;;;;;;;18.42;15.02;;;8.60;99.90;;;;;;5007595;28;20137;-65
2023/10/19 05:34:09;;;;;;;18.85;14.90;;;8.50;99.90;;;;;;5009210;28;20065;-65
2023/10/19 05:36:43;;;;;;;17.50;14.73;;;8.50;99.90;;;;;;5009369;28;20055;-65
2023/10/19 05:39:19;;;;;;;17.35;14.90;;;8.50;99.90;;;;;;5013882;28;20073;-65
2023/10/19 05:41:51;;;;;;;18.05;14.82;;;8.40;99.90;;;;;;5004950;28;20081;-66
2023/10/19 05:44:24;;;;;;;19.20;16.40;;;8.50;99.90;;;;;;5028702;28;20132;-65
2023/10/19 05:46:58;;;;;;;21.30;17.17;;;8.50;99.90;;;;;;5014797;28;20505;-65
2023/10/19 05:49:32;;;;;;;18.30;15.95;;;8.50;99.90;;;;;;5014926;28;20042;-65
2023/10/19 05:52:04;;;;;;;18.50;14.10;;;8.50;99.90;;;;;;5004930;28;20045;-65
2023/10/19 05:54:38;;;;;;;16.90;15.05;;;8.60;99.90;;;;;;5015774;28;20134;-65
2023/10/19 05:57:10;;;;;;;22.90;16.98;;;8.70;99.90;;;;;;5004746;28;20157;-65
2023/10/19 05:59:41;;;;;;;18.17;15.05;;;8.70;99.90;;;;;;5018981;28;20039;-67
2023/10/19 06:02:14;;;;;;;20.70;16.42;;;8.80;99.90;;;;;;5019094;28;20042;-65
2023/10/19 06:04:45;;;;;;;20.30;16.25;;;8.70;99.90;;;;;;5007529;28;20052;-65
2023/10/19 06:07:14;;;;;;;22.30;18.52;;;8.80;99.90;;;;;;5014500;28;20044;-65
2023/10/19 06:09:41;;;;;;;22.35;18.95;;;8.70;99.90;;;;;;5019952;28;20395;-65
2023/10/19 06:12:13;;;;;;;25.02;17.67;;;8.70;99.90;;;;;;5022328;28;20056;-65
2023/10/19 06:14:45;;;;;;;22.27;18.55;;;8.70;99.90;;;;;;5016657;28;20049;-65
2023/10/19 06:17:18;;;;;;;24.25;18.35;;;8.70;99.90;;;;;;5021184;28;20056;-65
2023/10/19 06:19:50;;;;;;;20.48;16.98;;;8.70;99.90;;;;;;5017162;28;20046;-65
2023/10/19 06:22:22;;;;;;;21.45;16.75;;;8.70;99.90;;;;;;5018861;28;20034;-65
2023/10/19 06:24:54;;;;;;;19.50;15.43;;;8.60;99.90;;;;;;5031144;28;20038;-65
2023/10/19 06:27:26;;;;;;;21.85;16.58;;;8.70;99.90;;;;;;5031791;28;20532;-65
2023/10/19 06:29:58;;;;;;;19.25;16.38;;;8.70;99.90;;;;;;5013351;28;20050;-65
2023/10/19 06:32:30;;;;;;;20.77;16.73;;;8.70;99.90;;;;;;5012121;28;20038;-65
2023/10/19 06:35:02;;;;;;;21.98;18.20;;;8.70;99.90;;;;;;4996429;28;20421;-65
2023/10/19 06:37:29;;;;;;;22.75;17.98;;;8.70;99.90;;;;;;5018770;28;20041;-65
2023/10/19 06:40:01;;;;;;;20.73;17.52;;;8.70;99.90;;;;;;5024089;28;20069;-65
2023/10/19 06:42:35;;;;;;;22.40;18.42;;;8.80;99.90;;;;;;5018463;28;20516;-65
2023/10/19 06:45:07;;;;;;;;;;;8.80;99.90;;;;;;5003581;28;20045;-65
2023/10/19 06:47:37;;;;;;;25.67;19.20;;;8.90;99.90;;;;;;5021792;28;19925;-65
2023/10/19 06:50:10;;;;;;;23.23;17.63;;;8.90;99.90;;;;;;5019734;28;20045;-65
2023/10/19 06:52:43;;;;;;;20.98;17.05;;;8.90;99.90;;;;;;5003314;28;20057;-65
2023/10/19 06:55:19;;;;;;;21.95;17.83;;;9.00;99.90;;;;;;5018113;28;20042;-65
2023/10/19 06:57:53;;;;;;;20.73;16.60;;;9.00;99.90;;;;;;5013892;28;20045;-65
2023/10/19 07:00:28;;;;;;;24.88;17.65;;;9.10;99.90;;;;;;5018301;28;20037;-65
2023/10/19 07:03:00;;;;;;;21.60;17.10;;;9.10;99.90;;;;;;5011326;28;20125;-65
2023/10/19 07:05:29;;;;;;;21.02;16.80;;;9.20;99.90;;;;;;5010319;28;20048;-65
2023/10/19 07:08:02;;;;;;;23.75;18.65;;;9.30;99.90;;;;;;5014236;28;20049;-65
2023/10/19 07:10:34;;;;;;;23.15;16.88;;;9.40;99.90;;;;;;5015931;28;20145;-65
2023/10/19 07:13:06;;;;;;;22.67;17.15;;;9.40;99.90;;;;;;5019555;28;20095;-65
2023/10/19 07:15:41;;;;;;;23.15;18.60;;;9.50;99.90;;;;;;5018994;28;20657;-65
2023/10/19 07:18:16;;;;;;;23.90;20.30;;;9.50;99.90;;;;;;5007771;28;20046;-65
2023/10/19 07:20:49;;;;;;;24.40;20.00;;;9.60;99.90;;;;;;5020826;28;20560;-65
2023/10/19 07:23:22;;;;;;;23.67;19.73;;;9.60;99.90;;;;;;5017468;28;20422;-66
2023/10/19 07:25:54;;;;;;;26.97;20.60;;;9.60;99.90;;;;;;5024857;28;20168;-65
2023/10/19 07:28:26;;;;;;;21.70;17.35;;;9.70;99.90;;;;;;4994091;28;20277;-65
2023/10/19 07:30:59;;;;;;;22.80;18.65;;;9.70;99.90;;;;;;5012784;28;20038;-65
2023/10/19 07:33:31;;;;;;;24.23;18.63;;;9.70;99.90;;;;;;5013374;28;20041;-65
2023/10/19 07:36:08;;;;;;;22.40;17.95;;;9.80;99.90;;;;;;5005539;28;20057;-65
2023/10/19 07:38:42;;;;;;;20.02;17.73;;;9.80;99.90;;;;;;5017543;28;20053;-65
2023/10/19 07:41:09;;;;;;;19.70;16.80;;;9.80;99.90;;;;;;5003792;28;20057;-65
2023/10/19 07:43:41;;;;;;;20.80;16.10;;;9.80;99.90;;;;;;5008891;28;20631;-65
2023/10/19 07:46:13;;;;;;;18.80;16.08;;;9.80;99.90;;;;;;5018702;28;20506;-65
2023/10/19 07:48:44;;;;;;;20.27;16.80;;;9.80;99.90;;;;;;5016531;28;20394;-65
2023/10/19 07:51:11;;;;;;;21.67;18.77;;;9.80;99.90;;;;;;5002995;28;20046;-65
2023/10/19 07:53:43;;;;;;;21.13;16.80;;;9.80;99.90;;;;;;5011091;28;20053;-65
2023/10/19 07:56:15;;;;;;;23.52;17.17;;;9.80;99.90;;;;;;4994997;28;20047;-65
2023/10/19 07:58:46;;;;;;;22.90;19.10;;;9.80;99.90;;;;;;4987013;28;20058;-66
2023/10/19 08:01:18;;;;;;;26.73;20.70;;;9.80;99.90;;;;;;5012239;28;20057;-65
2023/10/19 08:03:51;;;;;;;24.73;19.13;;;9.90;99.90;;;;;;5007779;28;20526;-65
2023/10/19 08:06:23;;;;;;;23.83;18.30;;;9.90;99.90;;;;;;5016308;28;20047;-65
2023/10/19 08:08:50;;;;;;;22.58;17.65;;;9.80;99.90;;;;;;5011929;28;20547;-65
2023/10/19 08:11:22;;;;;;;21.67;18.20;;;9.80;99.90;;;;;;4997736;28;20054;-65
2023/10/19 08:13:55;;;;;;;23.30;18.75;;;9.80;99.90;;;;;;5011613;28;20042;-65
2023/10/19 08:16:23;;;;;;;26.77;22.90;;;9.90;99.90;;;;;;5017855;28;20084;-65
2023/10/19 08:18:57;;;;;;;28.42;21.83;;;9.90;99.90;;;;;;5017833;28;20047;-65
2023/10/19 08:21:28;;;;;;;23.90;19.48;;;9.80;99.90;;;;;;5003438;28;20052;-66
2023/10/19 08:24:04;;;;;;;25.83;19.90;;;9.90;99.90;;;;;;5014644;28;20047;-65
2023/10/19 08:26:31;;;;;;;24.13;18.40;;;9.80;99.90;;;;;;5020314;28;20030;-65
2023/10/19 08:28:58;;;;;;;23.02;17.90;;;9.80;99.90;;;;;;5012140;28;20246;-65
2023/10/19 08:31:31;;;;;;;22.65;17.40;;;9.80;99.90;;;;;;5009139;28;20049;-65
2023/10/19 08:34:03;;;;;;;22.67;17.65;;;9.90;99.90;;;;;;5019534;28;20045;-66
2023/10/19 08:36:37;;;;;;;23.00;18.20;;;9.80;99.90;;;;;;5005247;28;20502;-66
2023/10/19 08:39:11;;;;;;;21.73;17.10;;;9.80;99.90;;;;;;5011358;28;20050;-66
2023/10/19 08:41:43;;;;;;;21.02;17.10;;;9.90;99.90;;;;;;5010068;28;20395;-66
2023/10/19 08:44:10;;;;;;;25.35;18.55;;;9.80;99.90;;;;;;5014181;28;20413;-65
2023/10/19 08:46:44;;;;;;;21.80;16.58;;;9.90;99.90;;;;;;5017055;28;20753;-65
2023/10/19 08:49:19;;;;;;;23.02;17.25;;;9.90;99.90;;;;;;5014352;28;20052;-65
2023/10/19 08:51:53;;;;;;;22.08;17.88;;;9.90;99.90;;;;;;5000779;28;20504;-65
2023/10/19 08:54:25;;;;;;;25.23;20.10;;;9.90;99.90;;;;;;5015016;28;20069;-65
2023/10/19 08:56:59;;;;;;;23.48;18.25;;;10.00;99.90;;;;;;5019338;28;20057;-65
2023/10/19 08:59:31;;;;;;;23.90;17.73;;;10.00;99.90;;;;;;4992725;28;20050;-65
2023/10/19 09:02:03;;;;;;;20.65;16.65;;;10.10;99.90;;;;;;5014248;28;20045;-65
2023/10/19 09:04:30;;;;;;;21.52;18.88;;;10.20;99.90;;;;;;5013211;28;20052;-65
2023/10/19 09:07:08;;;;;;;23.83;18.80;;;10.20;99.90;;;;;;5011464;28;20049;-65
2023/10/19 09:09:40;;;;;;;25.08;20.45;;;10.30;99.90;;;;;;5002949;28;20069;-65
2023/10/19 09:12:13;;;;;;;23.40;18.98;;;10.40;99.90;;;;;;5013137;28;20049;-65
2023/10/19 09:14:43;;;;;;;23.05;19.30;;;10.40;99.90;;;;;;5011773;28;20046;-65
2023/10/19 09:17:15;;;;;;;21.38;18.20;;;10.40;99.90;;;;;;5013508;28;20073;-65
2023/10/19 09:19:48;;;;;;;23.92;18.23;;;10.50;99.90;;;;;;5021800;28;20048;-65
2023/10/19 09:22:18;;;;;;;21.90;17.48;;;10.50;99.90;;;;;;5017013;28;20413;-65
2023/10/19 09:24:53;;;;;;;23.45;19.67;;;10.60;99.90;;;;;;5002570;28;20037;-65
2023/10/19 09:27:25;;;;;;;22.08;19.13;;;10.60;99.90;;;;;;5015137;28;20034;-65
2023/10/19 09:29:58;;;;;;;23.67;18.95;;;10.60;99.90;;;;;;5014607;28;20069;-65
2023/10/19 09:32:32;;;;;;;25.88;19.38;;;10.60;99.90;;;;;;5014920;28;20041;-65
2023/10/19 09:35:05;;;;;;;25.25;20.10;;;10.70;99.90;;;;;;5006710;28;20576;-65
2023/10/19 09:37:37;;;;;;;23.65;18.98;;;10.70;99.90;;;;;;5012048;28;20541;-65
2023/10/19 09:40:12;;;;;;;22.33;18.48;;;10.80;99.90;;;;;;5024725;28;20048;-65
2023/10/19 09:42:48;;;;;;;21.23;17.63;;;10.90;99.90;;;;;;5043305;28;20075;-65
2023/10/19 09:45:24;;;;;;;21.90;17.70;;;11.00;99.90;;;;;;5016231;28;20533;-66
2023/10/19 09:47:56;;;;;;;23.67;19.15;;;11.10;99.90;;;;;;5020085;28;20125;-65
2023/10/19 09:50:29;;;;;;;26.90;19.73;;;11.20;99.90;;;;;;5016621;28;20048;-65
2023/10/19 09:53:03;;;;;;;28.90;21.45;;;11.30;99.90;;;;;;5023003;28;20052;-65
2023/10/19 09:55:40;;;;;;;23.83;19.70;;;11.40;99.90;;;;;;5015209;28;20046;-65
2023/10/19 09:58:17;;;;;;;25.02;19.00;;;11.50;99.90;;;;;;5029461;28;20044;-65
2023/10/19 10:00:49;;;;;;;22.27;18.45;;;11.50;99.90;;;;;;5017155;28;20215;-65
2023/10/19 10:03:47;;;;;;;23.63;20.05;;;11.60;99.90;;;;;;5012377;28;20034;-65
2023/10/19 10:06:16;;;;;;;27.42;20.63;;;11.80;99.90;;;;;;5023294;28;20061;-66
2023/10/19 10:08:48;;;;;;;28.85;20.13;;;11.90;99.90;;;;;;5010964;28;20464;-66
2023/10/19 10:11:28;;;;;;;23.88;20.95;;;12.00;99.90;;;;;;5012995;28;20037;-66
2023/10/19 10:14:00;;;;;;;26.23;20.50;;;12.10;99.90;;;;;;5014674;28;20046;-66
2023/10/19 10:16:34;;;;;;;23.88;19.60;;;12.20;99.90;;;;;;5017891;28;20559;-65
2023/10/19 10:19:05;;;;;;;23.35;19.25;;;12.30;99.90;;;;;;5017496;28;20061;-66
2023/10/19 10:21:34;;;;;;;21.98;18.83;;;12.30;99.90;;;;;;5016436;28;20074;-65
2023/10/19 10:24:06;;;;;;;27.50;20.70;;;12.40;99.90;;;;;;5020030;28;20061;-65
2023/10/19 10:26:58;;;;;;;21.50;17.17;;;12.50;99.90;;;;;;5017000;28;20038;-65
2023/10/19 10:29:26;;;;;;;19.83;15.00;;;12.50;99.90;;;;;;5003921;28;20056;-65
2023/10/19 10:31:59;;;;;;;19.70;15.75;;;12.60;99.90;;;;;;5019710;28;20037;-65
2023/10/19 10:34:36;;;;;;;26.75;22.10;;;12.70;99.90;;;;;;5015157;28;20042;-66
2023/10/19 10:37:14;;;;;;;24.08;19.58;;;12.70;99.90;;;;;;4986005;28;20050;-65
2023/10/19 10:39:46;;;;;;;23.60;19.30;;;12.70;99.90;;;;;;5022056;28;20053;-65
2023/10/19 10:42:18;;;;;;;22.48;18.13;;;12.70;99.90;;;;;;5019441;28;20047;-65
2023/10/19 10:44:55;;;;;;;21.73;18.73;;;12.70;99.90;;;;;;5013102;28;20045;-65
2023/10/19 10:47:31;;;;;;;23.77;18.63;;;12.70;99.90;;;;;;5011749;28;20185;-65
2023/10/19 10:50:04;;;;;;;23.92;19.23;;;12.80;99.90;;;;;;5014743;28;20056;-64
2023/10/19 10:52:37;;;;;;;25.13;19.17;;;12.80;99.90;;;;;;5014495;28;20042;-64
2023/10/19 10:55:12;;;;;;;19.33;16.73;;;12.80;99.90;;;;;;5020714;28;20033;-65
2023/10/19 10:57:44;;;;;;;26.83;19.92;;;12.90;99.90;;;;;;5017688;28;20060;-65
2023/10/19 11:00:18;;;;;;;21.27;18.38;;;12.90;99.90;;;;;;5004832;28;20537;-65
2023/10/19 11:02:49;;;;;;;22.25;18.63;;;12.90;99.90;;;;;;5009591;28;20129;-64
2023/10/19 11:05:21;;;;;;;19.17;17.13;;;13.00;99.90;;;;;;5011438;28;20472;-65
2023/10/19 11:08:03;;;;;;;22.55;17.17;;;13.00;99.90;;;;;;5007466;28;20037;-65
2023/10/19 11:10:36;;;;;;;22.35;18.52;;;13.10;99.90;;;;;;5004086;28;20109;-65
2023/10/19 11:13:10;;;;;;;18.90;16.90;;;13.10;99.90;;;;;;5008634;28;20029;-64
2023/10/19 11:15:50;;;;;;;20.92;18.45;;;13.20;99.90;;;;;;5006132;28;20054;-65
2023/10/19 11:18:37;;;;;;;22.55;18.95;;;13.20;99.90;;;;;;5008590;28;20523;-65
2023/10/19 11:21:09;;;;;;;22.10;18.63;;;13.30;99.90;;;;;;5016485;28;20053;-65
2023/10/19 11:23:47;;;;;;;23.70;18.27;;;13.40;99.90;;;;;;5012736;28;20046;-64
2023/10/19 11:26:21;;;;;;;22.50;19.00;;;13.40;99.90;;;;;;5009486;28;20531;-65
2023/10/19 11:28:57;;;;;;;25.10;20.55;;;13.50;99.90;;;;;;5011964;28;20045;-65
2023/10/19 11:31:24;;;;;;;19.55;17.45;;;13.60;99.90;;;;;;5015576;28;20045;-65
2023/10/19 11:33:56;;;;;;;20.17;17.80;;;13.70;99.90;;;;;;5013575;28;20041;-65
2023/10/19 11:36:24;;;;;;;20.73;17.85;;;13.70;99.90;;;;;;5012719;28;20061;-65
2023/10/19 11:38:56;;;;;;;22.13;18.90;;;13.80;99.90;;;;;;5029829;28;20042;-66
2023/10/19 11:41:30;;;;;;;21.85;19.10;;;13.80;99.90;;;;;;5009209;28;20056;-66
2023/10/19 11:43:57;;;;;;;20.60;18.05;;;13.90;99.90;;;;;;5007992;28;20069;-66
2023/10/19 11:46:29;;;;;;;21.38;18.50;;;14.00;99.90;;;;;;5013596;28;20502;-65
2023/10/19 11:49:03;;;;;;;20.95;18.75;;;14.00;99.90;;;;;;5014046;28;20034;-66
2023/10/19 11:51:36;;;;;;;22.98;18.65;;;14.10;99.90;;;;;;5017370;28;20425;-66
2023/10/19 11:54:06;;;;;;;25.63;20.17;;;14.20;99.90;;;;;;5018823;28;20564;-66
2023/10/19 11:56:37;;;;;;;19.27;16.80;;;14.40;99.90;;;;;;4991944;28;20069;-67
2023/10/19 11:59:04;;;;;;;19.33;16.20;;;14.50;99.90;;;;;;5009851;28;20048;-65
2023/10/19 12:01:36;;;;;;;14.07;12.43;;;14.70;99.90;;;;;;5030442;28;20052;-66
2023/10/19 12:04:03;;;;;;;16.40;14.68;;;14.80;99.90;;;;;;5019811;28;20044;-66
2023/10/19 12:06:37;;;;;;;16.50;13.65;;;15.00;99.90;;;;;;5012829;28;20049;-65
2023/10/19 12:09:14;;;;;;;17.05;12.38;;;15.20;99.90;;;;;;5009193;28;20652;-65
2023/10/19 12:11:46;;;;;;;12.73;9.55;;;15.30;99.90;;;;;;5005746;28;20061;-65
2023/10/19 12:14:18;;;;;;;11.98;9.93;;;15.30;99.90;;;;;;4992070;28;20050;-65
2023/10/19 12:16:50;;;;;;;15.35;11.48;;;15.30;99.90;;;;;;5005618;28;20053;-65
2023/10/19 12:19:18;;;;;;;13.10;11.25;;;15.30;99.90;;;;;;5010069;28;20144;-65
2023/10/19 12:21:46;;;;;;;15.95;14.45;;;15.30;99.90;;;;;;5002701;28;20052;-64
2023/10/19 12:24:18;;;;;;;16.58;14.80;;;15.30;99.90;;;;;;5009723;28;20065;-65
2023/10/19 12:26:51;;;;;;;17.75;15.75;;;15.30;99.90;;;;;;5007543;28;20042;-64
2023/10/19 12:29:20;;;;;;;16.00;14.30;;;15.40;99.90;;;;;;5007860;28;20136;-65
2023/10/19 12:31:52;;;;;;;15.52;13.93;;;15.50;99.90;;;;;;5011248;28;20045;-64
2023/10/19 12:34:24;;;;;;;16.80;14.23;;;15.60;99.90;;;;;;5006608;28;20055;-65
2023/10/19 12:36:58;;;;;;;16.23;13.45;;;15.70;99.90;;;;;;5015267;28;20679;-65
2023/10/19 12:39:40;;;;;;;16.40;13.32;;;15.90;99.90;;;;;;4992632;28;20509;-64
2023/10/19 12:42:14;;;;;;;17.38;13.95;;;16.00;99.90;;;;;;5013754;28;20553;-64
2023/10/19 12:44:45;;;;;;;14.82;13.23;;;16.10;99.90;;;;;;5009865;28;20048;-64
2023/10/19 12:47:17;;;;;;;15.45;13.88;;;16.20;99.90;;;;;;5009953;28;20049;-64
2023/10/19 12:49:50;;;;;;;14.57;12.43;;;16.30;99.90;;;;;;5019938;28;20042;-64
2023/10/19 12:52:22;;;;;;;;;;;16.30;99.90;;;;;;5007507;28;20038;-64
2023/10/19 12:54:59;;;;;;;15.43;10.75;;;16.30;99.90;;;;;;5006859;28;19927;-64
2023/10/19 12:57:32;;;;;;;20.95;12.88;;;16.30;99.90;;;;;;5007986;28;20502;-64
2023/10/19 13:00:23;;;;;;;;;;;16.40;99.90;;;;;;5010963;28;20505;-64
2023/10/19 13:02:50;;;;;;;15.13;12.68;;;16.50;99.90;;;;;;5011665;28;20373;-64
2023/10/19 13:05:22;;;;;;;12.30;11.10;;;16.60;99.90;;;;;;5008690;28;20390;-64
2023/10/19 13:07:49;;;;;;;11.45;10.25;;;16.60;99.90;;;;;;5012064;28;20574;-64
2023/10/19 13:10:21;;;;;;;11.32;10.20;;;16.50;99.90;;;;;;5006574;28;20116;-64
2023/10/19 13:12:53;;;;;;;13.95;10.93;;;16.50;99.90;;;;;;5015076;28;20041;-64
2023/10/19 13:15:20;;;;;;;11.00;9.90;;;16.50;99.90;;;;;;5007028;28;20143;-64
2023/10/19 13:17:48;;;;;;;11.75;9.23;;;16.60;99.90;;;;;;5010293;28;20048;-64
2023/10/19 13:20:18;;;;;;;10.57;9.48;;;16.70;99.90;;;;;;5011038;28;20037;-64
2023/10/19 13:22:50;;;;;;;10.50;9.20;;;16.60;99.90;;;;;;5014372;28;20517;-64
2023/10/19 13:25:38;;;;;;;11.43;10.23;;;16.50;99.90;;;;;;5016267;28;20037;-64
2023/10/19 13:28:12;;;;;;;9.80;8.75;;;16.40;99.90;;;;;;5031762;28;20042;-64
2023/10/19 13:30:50;;;;;;;11.95;10.65;;;16.40;99.90;;;;;;5004317;28;20057;-66